Em Athens — V7US8 — position and weather

sailwx.info

Track history (hours):
 
Tides and Currents Weather Stations Pressure Air Temp Water Temp Dewpoint Dewpoint Depression Visibility Wind Speed Wind Dir Waves Ship Positions

Em Athens

Last reported at 2014-Aug-06 23:33 UTC. Time now 2014-Aug-30 06:30 UTC.
Position N 32°05' W 081°04'.
Warning: this ship's position is 23 days out of date.

; draft 9.8 m.

Type: Ship. MMSI: 538004019.

Date/timePositionNaut miles runAvg speedWind from/ knotsBaromVisibWave heightAir tempDewpointWater temp
2014-Aug-06 23:33N 32°05' W 081°04'4 4.3
2014-Aug-06 22:33N 32°07' W 081°08'0 0.0
2014-Aug-06 21:32N 32°07' W 081°08'0 0.0
2014-Aug-06 20:32N 32°07' W 081°08'0 0.0
2014-Aug-06 19:33N 32°07' W 081°08'0 0.0
2014-Aug-06 18:34N 32°07' W 081°08'0 0.0
2014-Aug-06 17:34N 32°07' W 081°08'0 0.0
2014-Aug-06 16:32N 32°07' W 081°08'0 0.0
2014-Aug-06 15:33N 32°07' W 081°08'0 0.0
2014-Aug-06 14:33N 32°07' W 081°08'0 0.0
2014-Aug-06 13:33N 32°07' W 081°08'0 0.0
2014-Aug-06 12:32N 32°07' W 081°08'2 2.3
2014-Aug-06 11:33N 32°06' W 081°06'55914.7
2014-Aug-04 21:24N 39°20' W 073°52'1619.2
2014-Aug-04 20:33N 39°36' W 073°51'1918.8
2014-Aug-04 19:33N 39°55' W 073°50'2718.1
2014-Aug-04 18:04N 40°22' W 073°49'610.6
2014-Aug-04 17:30N 40°28' W 073°51'1213.2
2014-Aug-04 16:33N 40°36' W 074°03'5 5.0
2014-Aug-04 15:33N 40°41' W 074°01'0 0.0
2014-Aug-04 14:27N 40°41' W 074°01'0 0.0
2014-Aug-04 13:30N 40°41' W 074°01'0 0.0
2014-Aug-04 12:33N 40°41' W 074°01'0 0.0
2014-Aug-04 11:33N 40°41' W 074°01'0 0.0
2014-Aug-04 10:33N 40°41' W 074°01'0 0.0
2014-Aug-04 09:33N 40°41' W 074°01'0 0.0
2014-Aug-04 08:33N 40°41' W 074°01'0 0.0
2014-Aug-04 07:33N 40°41' W 074°01'0 0.0
2014-Aug-04 06:33N 40°41' W 074°01'0 0.0
2014-Aug-04 05:33N 40°41' W 074°01'0 0.0
2014-Aug-04 04:33N 40°41' W 074°01'0 0.0
2014-Aug-04 03:33N 40°41' W 074°01'0 0.0
2014-Aug-04 02:30N 40°41' W 074°01'0 0.0
2014-Aug-04 01:33N 40°41' W 074°01'0 0.0
2014-Aug-04 00:33N 40°41' W 074°01'0 0.0
2014-Aug-03 23:33N 40°41' W 074°01'0 0.0
2014-Aug-03 22:33N 40°41' W 074°01'1 1.2
2014-Aug-03 21:33N 40°41' W 074°02'1110.6
2014-Aug-03 20:33N 40°30' W 073°58'1110.7
2014-Aug-03 19:34N 40°27' W 073°44'1210.2
2014-Aug-03 18:25N 40°28' W 073°29'1011.1
2014-Aug-03 17:33N 40°30' W 073°17'7412.4
2014-Aug-03 11:33N 40°32' W 071°39'1616.3
2014-Aug-03 10:33N 40°32' W 071°18'1615.8
2014-Aug-03 09:33N 40°32' W 070°57'1515.5
2014-Aug-03 08:33N 40°32' W 070°37'1514.8
2014-Aug-03 07:33N 40°32' W 070°17'1414.3
2014-Aug-03 06:33N 40°33' W 069°58'1414.1
2014-Aug-03 05:33N 40°33' W 069°40'1514.5
2014-Aug-03 04:33N 40°34' W 069°21'1514.9
2014-Aug-03 03:33N 40°34' W 069°01'  
Track history (hours):
 
Tides and Currents Weather Stations Pressure Air Temp Water Temp Dewpoint Dewpoint Depression Visibility Wind Speed Wind Dir Waves Ship Positions

Em Athens

Last reported at 2014-Aug-06 23:33 UTC. Time now 2014-Aug-30 06:30 UTC.
Position N 32°05' W 081°04'.
Warning: this ship's position is 23 days out of date.

; draft 9.8 m.

Type: Ship. MMSI: 538004019.

Date/timePositionNaut miles runAvg speedWind from/ knotsBaromVisibWave heightAir tempDewpointWater temp
2014-Aug-06 23:33N 32°05' W 081°04'4 4.3
2014-Aug-06 22:33N 32°07' W 081°08'0 0.0
2014-Aug-06 21:32N 32°07' W 081°08'0 0.0
2014-Aug-06 20:32N 32°07' W 081°08'0 0.0
2014-Aug-06 19:33N 32°07' W 081°08'0 0.0
2014-Aug-06 18:34N 32°07' W 081°08'0 0.0
2014-Aug-06 17:34N 32°07' W 081°08'0 0.0
2014-Aug-06 16:32N 32°07' W 081°08'0 0.0
2014-Aug-06 15:33N 32°07' W 081°08'0 0.0
2014-Aug-06 14:33N 32°07' W 081°08'0 0.0
2014-Aug-06 13:33N 32°07' W 081°08'0 0.0
2014-Aug-06 12:32N 32°07' W 081°08'2 2.3
2014-Aug-06 11:33N 32°06' W 081°06'55914.7
2014-Aug-04 21:24N 39°20' W 073°52'1619.2
2014-Aug-04 20:33N 39°36' W 073°51'1918.8
2014-Aug-04 19:33N 39°55' W 073°50'2718.1
2014-Aug-04 18:04N 40°22' W 073°49'610.6
2014-Aug-04 17:30N 40°28' W 073°51'1213.2
2014-Aug-04 16:33N 40°36' W 074°03'5 5.0
2014-Aug-04 15:33N 40°41' W 074°01'0 0.0
2014-Aug-04 14:27N 40°41' W 074°01'0 0.0
2014-Aug-04 13:30N 40°41' W 074°01'0 0.0
2014-Aug-04 12:33N 40°41' W 074°01'0 0.0
2014-Aug-04 11:33N 40°41' W 074°01'0 0.0
2014-Aug-04 10:33N 40°41' W 074°01'0 0.0
2014-Aug-04 09:33N 40°41' W 074°01'0 0.0
2014-Aug-04 08:33N 40°41' W 074°01'0 0.0
2014-Aug-04 07:33N 40°41' W 074°01'0 0.0
2014-Aug-04 06:33N 40°41' W 074°01'0 0.0
2014-Aug-04 05:33N 40°41' W 074°01'0 0.0
2014-Aug-04 04:33N 40°41' W 074°01'0 0.0
2014-Aug-04 03:33N 40°41' W 074°01'0 0.0
2014-Aug-04 02:30N 40°41' W 074°01'0 0.0
2014-Aug-04 01:33N 40°41' W 074°01'0 0.0
2014-Aug-04 00:33N 40°41' W 074°01'0 0.0
2014-Aug-03 23:33N 40°41' W 074°01'0 0.0
2014-Aug-03 22:33N 40°41' W 074°01'1 1.2
2014-Aug-03 21:33N 40°41' W 074°02'1110.6
2014-Aug-03 20:33N 40°30' W 073°58'1110.7
2014-Aug-03 19:34N 40°27' W 073°44'1210.2
2014-Aug-03 18:25N 40°28' W 073°29'1011.1
2014-Aug-03 17:33N 40°30' W 073°17'7412.4
2014-Aug-03 11:33N 40°32' W 071°39'1616.3
2014-Aug-03 10:33N 40°32' W 071°18'1615.8
2014-Aug-03 09:33N 40°32' W 070°57'1515.5
2014-Aug-03 08:33N 40°32' W 070°37'1514.8
2014-Aug-03 07:33N 40°32' W 070°17'1414.3
2014-Aug-03 06:33N 40°33' W 069°58'1414.1
2014-Aug-03 05:33N 40°33' W 069°40'1514.5
2014-Aug-03 04:33N 40°34' W 069°21'1514.9
2014-Aug-03 03:33N 40°34' W 069°01'  

Dump ship's entire track history